Hanjin Chongqing — 3EPJ2 — position and weather

sailwx.info

Track history (hours):
 
Tides and Currents Weather Stations Pressure Air Temp Water Temp Dewpoint Dewpoint Depression Visibility Wind Speed Wind Dir Waves Ship Positions

Hanjin Chongqing

Last reported at 2014-Sep-27 22:10 UTC. Time now 2014-Oct-01 08:20 UTC.
Position N 38°24' W 124°34'.

Length 304 m; draft 12 m.

Type: Cargo ship. MMSI: 353957976.

Date/timePositionNaut miles runAvg speedWind from/ knotsBaromVisibWave heightAir tempDewpointWater temp
2014-Sep-27 22:10N 38°24' W 124°34'1413.0
2014-Sep-27 21:07N 38°20' W 124°18'813.4
2014-Sep-27 20:33N 38°18' W 124°08'1413.8
2014-Sep-27 19:33N 38°14' W 123°51'1413.6
2014-Sep-27 18:33N 38°11' W 123°35'1312.8
2014-Sep-27 17:33N 38°08' W 123°19'1313.2
2014-Sep-27 16:33N 37°58' W 123°07'1313.1
2014-Sep-27 15:33N 37°51' W 122°53'1212.1
2014-Sep-27 14:33N 37°46' W 122°40'1313.3
2014-Sep-27 13:34N 37°49' W 122°23'4 3.8
2014-Sep-27 12:33N 37°48' W 122°19'0 0.0
2014-Sep-27 11:33N 37°48' W 122°19'0 0.0
2014-Sep-27 10:33N 37°48' W 122°19'0 0.0
2014-Sep-27 09:33N 37°48' W 122°19'0 0.0
2014-Sep-27 08:33N 37°48' W 122°19'0 0.0
2014-Sep-27 07:33N 37°48' W 122°19'0 0.0
2014-Sep-27 06:33N 37°48' W 122°19'0 0.0
2014-Sep-27 05:33N 37°48' W 122°19'0 0.0
2014-Sep-27 04:30N 37°48' W 122°19'0 0.0
2014-Sep-27 03:33N 37°48' W 122°19'0 0.0
2014-Sep-27 02:33N 37°48' W 122°19'0 0.0
2014-Sep-27 01:33N 37°48' W 122°19'0 0.4
2014-Sep-27 00:33N 37°48' W 122°18'2 1.6
2014-Sep-26 23:34N 37°48' W 122°20'1010.2
2014-Sep-26 22:33N 37°47' W 122°33'1211.6
2014-Sep-26 21:33N 37°42' W 122°46'1212.4
2014-Sep-26 20:33N 37°34' W 122°58'1212.2
2014-Sep-26 19:33N 37°22' W 123°01'1614.8
2014-Sep-26 18:28N 37°06' W 122°57'1719.0
2014-Sep-26 17:33N 36°51' W 122°48'2020.3
2014-Sep-26 16:33N 36°32' W 122°38'2020.0
2014-Sep-26 15:33N 36°14' W 122°27'1918.9
2014-Sep-26 14:33N 35°57' W 122°16'1919.1
2014-Sep-26 13:33N 35°41' W 122°04'1919.3
2014-Sep-26 12:33N 35°26' W 121°49'1919.1
2014-Sep-26 11:33N 35°11' W 121°35'4019.5
2014-Sep-26 09:30N 34°39' W 121°04'4419.4
2014-Sep-26 07:14N 34°18' W 120°17'1420.3
2014-Sep-26 06:33N 34°15' W 120°01'2120.7
2014-Sep-26 05:33N 34°09' W 119°37'2019.8
2014-Sep-26 04:33N 34°04' W 119°14'2019.6
2014-Sep-26 03:34N 33°54' W 118°54'1615.9
2014-Sep-26 02:33N 33°46' W 118°37'1211.8
2014-Sep-26 01:33N 33°40' W 118°25'8 8.3
2014-Sep-26 00:33N 33°42' W 118°15'3 3.1
2014-Sep-25 23:33N 33°45' W 118°16'0 0.0
2014-Sep-25 22:33N 33°45' W 118°16'0 0.0
2014-Sep-25 21:33N 33°45' W 118°16'0 0.0
2014-Sep-25 20:33N 33°45' W 118°16'0 0.0
2014-Sep-25 19:33N 33°45' W 118°16'0 0.0
2014-Sep-25 18:33N 33°45' W 118°16'0 0.0
2014-Sep-25 17:33N 33°45' W 118°16'0 0.0
2014-Sep-25 16:33N 33°45' W 118°16'0 0.0
2014-Sep-25 15:33N 33°45' W 118°16'0 0.0
2014-Sep-25 14:33N 33°45' W 118°16'0 0.0
2014-Sep-25 13:33N 33°45' W 118°16'0 0.0
2014-Sep-25 12:33N 33°45' W 118°16'0 0.0
2014-Sep-25 11:33N 33°45' W 118°16'0 0.0
2014-Sep-25 10:33N 33°45' W 118°16'0 0.0
2014-Sep-25 09:33N 33°45' W 118°16'0 0.0
2014-Sep-25 08:33N 33°45' W 118°16'0 0.0
2014-Sep-25 07:33N 33°45' W 118°16'0 0.0
2014-Sep-25 06:33N 33°45' W 118°16'0 0.0
2014-Sep-25 05:33N 33°45' W 118°16'0 0.0
2014-Sep-25 04:33N 33°45' W 118°16'0 0.0
2014-Sep-25 03:33N 33°45' W 118°16'0 0.0
2014-Sep-25 02:33N 33°45' W 118°16'0 0.0
2014-Sep-25 01:33N 33°45' W 118°16'0 0.0
2014-Sep-25 00:33N 33°45' W 118°16'0 0.0
2014-Sep-24 23:33N 33°45' W 118°16'0 0.0
2014-Sep-24 22:33N 33°45' W 118°16'0 0.0
2014-Sep-24 21:33N 33°45' W 118°16'0 0.0
2014-Sep-24 20:33N 33°45' W 118°16'0 0.0
2014-Sep-24 19:33N 33°45' W 118°16'0 0.0
2014-Sep-24 18:33N 33°45' W 118°16'0 0.0
2014-Sep-24 17:33N 33°45' W 118°16'0 0.0
2014-Sep-24 16:33N 33°45' W 118°16'0 0.0
2014-Sep-24 15:33N 33°45' W 118°16'0 0.0
2014-Sep-24 14:33N 33°45' W 118°16'0 0.0
2014-Sep-24 13:33N 33°45' W 118°16'0 0.0
2014-Sep-24 12:33N 33°45' W 118°16'0 0.0
2014-Sep-24 11:33N 33°45' W 118°16'0 0.0
2014-Sep-24 10:33N 33°45' W 118°16'0 0.0
2014-Sep-24 09:33N 33°45' W 118°16'0 0.0
2014-Sep-24 08:33N 33°45' W 118°16'0 0.0
2014-Sep-24 07:33N 33°45' W 118°16'0 0.0
2014-Sep-24 06:33N 33°45' W 118°16'0 0.0
2014-Sep-24 05:32N 33°45' W 118°16'0 0.0
2014-Sep-24 04:32N 33°45' W 118°16'0 0.0
2014-Sep-24 03:32N 33°45' W 118°16'0 0.0
2014-Sep-24 02:32N 33°45' W 118°16'0 0.0
2014-Sep-24 01:32N 33°45' W 118°16'0 0.0
2014-Sep-24 00:32N 33°45' W 118°16'0 0.0
2014-Sep-23 23:32N 33°45' W 118°16'0 0.4
2014-Sep-23 22:32N 33°45' W 118°16'0 0.0
2014-Sep-23 21:32N 33°45' W 118°16'0 0.0
2014-Sep-23 20:32N 33°45' W 118°16'0 0.0
2014-Sep-23 19:32N 33°45' W 118°16'0 0.0
2014-Sep-23 18:32N 33°45' W 118°16'0 0.0
2014-Sep-23 17:32N 33°45' W 118°16'0 0.0
2014-Sep-23 16:32N 33°45' W 118°16'0 0.0
2014-Sep-23 15:32N 33°45' W 118°16'0 0.0
2014-Sep-23 14:32N 33°45' W 118°16'0 0.0
2014-Sep-23 13:29N 33°45' W 118°16'0 0.0
2014-Sep-23 12:32N 33°45' W 118°16'0 0.0
2014-Sep-23 11:32N 33°45' W 118°16'0 0.0
2014-Sep-23 10:32N 33°45' W 118°16'0 0.0
2014-Sep-23 09:32N 33°45' W 118°16'0 0.0
2014-Sep-23 08:32N 33°45' W 118°16'0 0.0
2014-Sep-23 07:32N 33°45' W 118°16'0 0.4
2014-Sep-23 06:33N 33°45' W 118°16'0 0.0
2014-Sep-23 05:33N 33°45' W 118°16'0 0.0
2014-Sep-23 04:33N 33°45' W 118°16'0 0.0
2014-Sep-23 03:33N 33°45' W 118°16'0 0.0
2014-Sep-23 02:33N 33°45' W 118°16'0 0.0
2014-Sep-23 01:33N 33°45' W 118°16'0 0.0
2014-Sep-23 00:33N 33°45' W 118°16'0 0.0
2014-Sep-22 23:33N 33°45' W 118°16'0 0.0
2014-Sep-22 22:33N 33°45' W 118°16'0 0.0
2014-Sep-22 21:33N 33°45' W 118°16'0 0.0
2014-Sep-22 20:33N 33°45' W 118°16'0 0.0
2014-Sep-22 19:33N 33°45' W 118°16'0 0.0
2014-Sep-22 18:33N 33°45' W 118°16'0 0.0
2014-Sep-22 17:33N 33°45' W 118°16'0 0.0
2014-Sep-22 16:33N 33°45' W 118°16'0 0.0
2014-Sep-22 15:33N 33°45' W 118°16'0 0.0
2014-Sep-22 14:33N 33°45' W 118°16'0 0.0
2014-Sep-22 13:33N 33°45' W 118°16'0 0.0
2014-Sep-22 12:33N 33°45' W 118°16'0 0.0
2014-Sep-22 11:33N 33°45' W 118°16'0 0.0
2014-Sep-22 10:33N 33°45' W 118°16'0 0.0
2014-Sep-22 09:33N 33°45' W 118°16'0 0.0
2014-Sep-22 08:33N 33°45' W 118°16'0 0.0
2014-Sep-22 07:33N 33°45' W 118°16'0 0.0
2014-Sep-22 06:33N 33°45' W 118°16'0 0.0
2014-Sep-22 05:33N 33°45' W 118°16'0 0.0
2014-Sep-22 04:33N 33°45' W 118°16'0 0.0
2014-Sep-22 03:33N 33°45' W 118°16'0 0.0
2014-Sep-22 02:33N 33°45' W 118°16'0 0.0
2014-Sep-22 01:33N 33°45' W 118°16'0 0.0
2014-Sep-22 00:33N 33°45' W 118°16'0 0.0
2014-Sep-21 23:33N 33°45' W 118°16'0 0.0
2014-Sep-21 22:33N 33°45' W 118°16'0 0.0
2014-Sep-21 21:33N 33°45' W 118°16'0 0.0
2014-Sep-21 20:33N 33°45' W 118°16'0 0.0
2014-Sep-21 19:33N 33°45' W 118°16'0 0.0
2014-Sep-21 18:33N 33°45' W 118°16'0 0.0
2014-Sep-21 17:33N 33°45' W 118°16'0 0.0
2014-Sep-21 16:33N 33°45' W 118°16'0 0.0
2014-Sep-21 15:33N 33°45' W 118°16'0 0.0
2014-Sep-21 14:33N 33°45' W 118°16'0 0.0
2014-Sep-21 13:33N 33°45' W 118°16'0 0.0
2014-Sep-21 12:33N 33°46' W 118°16'0 0.1
2014-Sep-21 11:33N 33°45' W 118°16'0 0.1
2014-Sep-21 10:33N 33°45' W 118°16'0 0.0
2014-Sep-21 09:27N 33°45' W 118°16'0 0.0
2014-Sep-21 08:33N 33°45' W 118°16'0 0.0
2014-Sep-21 07:33N 33°45' W 118°16'0 0.0
2014-Sep-21 06:33N 33°45' W 118°16'0 0.0
2014-Sep-21 05:30N 33°45' W 118°16'0 0.0
2014-Sep-21 04:33N 33°45' W 118°16'0 0.0
2014-Sep-21 03:33N 33°45' W 118°16'0 0.0
2014-Sep-21 02:33N 33°45' W 118°16'0 0.0
2014-Sep-21 01:33N 33°45' W 118°16'0 0.0
2014-Sep-21 00:33N 33°45' W 118°16'0 0.0
2014-Sep-20 23:33N 33°45' W 118°16'0 0.0
2014-Sep-20 22:33N 33°45' W 118°16'0 0.0
2014-Sep-20 21:33N 33°45' W 118°16'0 0.0
2014-Sep-20 20:33N 33°45' W 118°16'0 0.0
2014-Sep-20 19:33N 33°45' W 118°16'0 0.0
2014-Sep-20 18:33N 33°45' W 118°16'0 0.0
2014-Sep-20 17:33N 33°45' W 118°16'0 0.0
2014-Sep-20 16:33N 33°45' W 118°16'0 0.0
2014-Sep-20 15:33N 33°45' W 118°16'0 0.0
2014-Sep-20 14:33N 33°45' W 118°16'0 0.0
2014-Sep-20 13:33N 33°45' W 118°16'6 5.0
2014-Sep-20 12:26N 33°40' W 118°13'7 6.2
2014-Sep-20 11:22N 33°36' W 118°20'16 8.5
2014-Sep-20 09:26N 33°44' W 118°38'8 8.8
2014-Sep-20 08:33N 33°48' W 118°46'11 9.1
2014-Sep-20 07:24N 33°53' W 118°57'1513.6
2014-Sep-20 06:16N 34°00' W 119°13'1014.4
2014-Sep-20 05:33N 34°04' W 119°24'2014.4
2014-Sep-20 04:08N 34°10' W 119°48'814.3
2014-Sep-20 03:33N 34°12' W 119°58'1414.4
2014-Sep-20 02:33N 34°16' W 120°15'1615.3
2014-Sep-20 01:32N 34°20' W 120°33'7618.8
2014-Sep-19 21:29N 34°56' W 121°54'1819.2
2014-Sep-19 20:33N 35°06' W 122°13'1918.9
2014-Sep-19 19:33N 35°16' W 122°32'1918.7
2014-Sep-19 18:33N 35°26' W 122°51'1918.4
2014-Sep-19 17:33N 35°36' W 123°11'1818.6
2014-Sep-19 16:33N 35°46' W 123°30'1918.7
2014-Sep-19 15:33N 35°56' W 123°49'  
Track history (hours):
 
Tides and Currents Weather Stations Pressure Air Temp Water Temp Dewpoint Dewpoint Depression Visibility Wind Speed Wind Dir Waves Ship Positions

Hanjin Chongqing

Last reported at 2014-Sep-27 22:10 UTC. Time now 2014-Oct-01 08:20 UTC.
Position N 38°24' W 124°34'.

Length 304 m; draft 12 m.

Type: Cargo ship. MMSI: 353957976.

Date/timePositionNaut miles runAvg speedWind from/ knotsBaromVisibWave heightAir tempDewpointWater temp
2014-Sep-27 22:10N 38°24' W 124°34'1413.0
2014-Sep-27 21:07N 38°20' W 124°18'813.4
2014-Sep-27 20:33N 38°18' W 124°08'1413.8
2014-Sep-27 19:33N 38°14' W 123°51'1413.6
2014-Sep-27 18:33N 38°11' W 123°35'1312.8
2014-Sep-27 17:33N 38°08' W 123°19'1313.2
2014-Sep-27 16:33N 37°58' W 123°07'1313.1
2014-Sep-27 15:33N 37°51' W 122°53'1212.1
2014-Sep-27 14:33N 37°46' W 122°40'1313.3
2014-Sep-27 13:34N 37°49' W 122°23'4 3.8
2014-Sep-27 12:33N 37°48' W 122°19'0 0.0
2014-Sep-27 11:33N 37°48' W 122°19'0 0.0
2014-Sep-27 10:33N 37°48' W 122°19'0 0.0
2014-Sep-27 09:33N 37°48' W 122°19'0 0.0
2014-Sep-27 08:33N 37°48' W 122°19'0 0.0
2014-Sep-27 07:33N 37°48' W 122°19'0 0.0
2014-Sep-27 06:33N 37°48' W 122°19'0 0.0
2014-Sep-27 05:33N 37°48' W 122°19'0 0.0
2014-Sep-27 04:30N 37°48' W 122°19'0 0.0
2014-Sep-27 03:33N 37°48' W 122°19'0 0.0
2014-Sep-27 02:33N 37°48' W 122°19'0 0.0
2014-Sep-27 01:33N 37°48' W 122°19'0 0.4
2014-Sep-27 00:33N 37°48' W 122°18'2 1.6
2014-Sep-26 23:34N 37°48' W 122°20'1010.2
2014-Sep-26 22:33N 37°47' W 122°33'1211.6
2014-Sep-26 21:33N 37°42' W 122°46'1212.4
2014-Sep-26 20:33N 37°34' W 122°58'1212.2
2014-Sep-26 19:33N 37°22' W 123°01'1614.8
2014-Sep-26 18:28N 37°06' W 122°57'1719.0
2014-Sep-26 17:33N 36°51' W 122°48'2020.3
2014-Sep-26 16:33N 36°32' W 122°38'2020.0
2014-Sep-26 15:33N 36°14' W 122°27'1918.9
2014-Sep-26 14:33N 35°57' W 122°16'1919.1
2014-Sep-26 13:33N 35°41' W 122°04'1919.3
2014-Sep-26 12:33N 35°26' W 121°49'1919.1
2014-Sep-26 11:33N 35°11' W 121°35'4019.5
2014-Sep-26 09:30N 34°39' W 121°04'4419.4
2014-Sep-26 07:14N 34°18' W 120°17'1420.3
2014-Sep-26 06:33N 34°15' W 120°01'2120.7
2014-Sep-26 05:33N 34°09' W 119°37'2019.8
2014-Sep-26 04:33N 34°04' W 119°14'2019.6
2014-Sep-26 03:34N 33°54' W 118°54'1615.9
2014-Sep-26 02:33N 33°46' W 118°37'1211.8
2014-Sep-26 01:33N 33°40' W 118°25'8 8.3
2014-Sep-26 00:33N 33°42' W 118°15'3 3.1
2014-Sep-25 23:33N 33°45' W 118°16'0 0.0
2014-Sep-25 22:33N 33°45' W 118°16'0 0.0
2014-Sep-25 21:33N 33°45' W 118°16'0 0.0
2014-Sep-25 20:33N 33°45' W 118°16'0 0.0
2014-Sep-25 19:33N 33°45' W 118°16'0 0.0
2014-Sep-25 18:33N 33°45' W 118°16'0 0.0
2014-Sep-25 17:33N 33°45' W 118°16'0 0.0
2014-Sep-25 16:33N 33°45' W 118°16'0 0.0
2014-Sep-25 15:33N 33°45' W 118°16'0 0.0
2014-Sep-25 14:33N 33°45' W 118°16'0 0.0
2014-Sep-25 13:33N 33°45' W 118°16'0 0.0
2014-Sep-25 12:33N 33°45' W 118°16'0 0.0
2014-Sep-25 11:33N 33°45' W 118°16'0 0.0
2014-Sep-25 10:33N 33°45' W 118°16'0 0.0
2014-Sep-25 09:33N 33°45' W 118°16'0 0.0
2014-Sep-25 08:33N 33°45' W 118°16'0 0.0
2014-Sep-25 07:33N 33°45' W 118°16'0 0.0
2014-Sep-25 06:33N 33°45' W 118°16'0 0.0
2014-Sep-25 05:33N 33°45' W 118°16'0 0.0
2014-Sep-25 04:33N 33°45' W 118°16'0 0.0
2014-Sep-25 03:33N 33°45' W 118°16'0 0.0
2014-Sep-25 02:33N 33°45' W 118°16'0 0.0
2014-Sep-25 01:33N 33°45' W 118°16'0 0.0
2014-Sep-25 00:33N 33°45' W 118°16'0 0.0
2014-Sep-24 23:33N 33°45' W 118°16'0 0.0
2014-Sep-24 22:33N 33°45' W 118°16'0 0.0
2014-Sep-24 21:33N 33°45' W 118°16'0 0.0
2014-Sep-24 20:33N 33°45' W 118°16'0 0.0
2014-Sep-24 19:33N 33°45' W 118°16'0 0.0
2014-Sep-24 18:33N 33°45' W 118°16'0 0.0
2014-Sep-24 17:33N 33°45' W 118°16'0 0.0
2014-Sep-24 16:33N 33°45' W 118°16'0 0.0
2014-Sep-24 15:33N 33°45' W 118°16'0 0.0
2014-Sep-24 14:33N 33°45' W 118°16'0 0.0
2014-Sep-24 13:33N 33°45' W 118°16'0 0.0
2014-Sep-24 12:33N 33°45' W 118°16'0 0.0
2014-Sep-24 11:33N 33°45' W 118°16'0 0.0
2014-Sep-24 10:33N 33°45' W 118°16'0 0.0
2014-Sep-24 09:33N 33°45' W 118°16'0 0.0
2014-Sep-24 08:33N 33°45' W 118°16'0 0.0
2014-Sep-24 07:33N 33°45' W 118°16'0 0.0
2014-Sep-24 06:33N 33°45' W 118°16'0 0.0
2014-Sep-24 05:32N 33°45' W 118°16'0 0.0
2014-Sep-24 04:32N 33°45' W 118°16'0 0.0
2014-Sep-24 03:32N 33°45' W 118°16'0 0.0
2014-Sep-24 02:32N 33°45' W 118°16'0 0.0
2014-Sep-24 01:32N 33°45' W 118°16'0 0.0
2014-Sep-24 00:32N 33°45' W 118°16'0 0.0
2014-Sep-23 23:32N 33°45' W 118°16'0 0.4
2014-Sep-23 22:32N 33°45' W 118°16'0 0.0
2014-Sep-23 21:32N 33°45' W 118°16'0 0.0
2014-Sep-23 20:32N 33°45' W 118°16'0 0.0
2014-Sep-23 19:32N 33°45' W 118°16'0 0.0
2014-Sep-23 18:32N 33°45' W 118°16'0 0.0
2014-Sep-23 17:32N 33°45' W 118°16'0 0.0
2014-Sep-23 16:32N 33°45' W 118°16'0 0.0
2014-Sep-23 15:32N 33°45' W 118°16'0 0.0
2014-Sep-23 14:32N 33°45' W 118°16'0 0.0
2014-Sep-23 13:29N 33°45' W 118°16'0 0.0
2014-Sep-23 12:32N 33°45' W 118°16'0 0.0
2014-Sep-23 11:32N 33°45' W 118°16'0 0.0
2014-Sep-23 10:32N 33°45' W 118°16'0 0.0
2014-Sep-23 09:32N 33°45' W 118°16'0 0.0
2014-Sep-23 08:32N 33°45' W 118°16'0 0.0
2014-Sep-23 07:32N 33°45' W 118°16'0 0.4
2014-Sep-23 06:33N 33°45' W 118°16'0 0.0
2014-Sep-23 05:33N 33°45' W 118°16'0 0.0
2014-Sep-23 04:33N 33°45' W 118°16'0 0.0
2014-Sep-23 03:33N 33°45' W 118°16'0 0.0
2014-Sep-23 02:33N 33°45' W 118°16'0 0.0
2014-Sep-23 01:33N 33°45' W 118°16'0 0.0
2014-Sep-23 00:33N 33°45' W 118°16'0 0.0
2014-Sep-22 23:33N 33°45' W 118°16'0 0.0
2014-Sep-22 22:33N 33°45' W 118°16'0 0.0
2014-Sep-22 21:33N 33°45' W 118°16'0 0.0
2014-Sep-22 20:33N 33°45' W 118°16'0 0.0
2014-Sep-22 19:33N 33°45' W 118°16'0 0.0
2014-Sep-22 18:33N 33°45' W 118°16'0 0.0
2014-Sep-22 17:33N 33°45' W 118°16'0 0.0
2014-Sep-22 16:33N 33°45' W 118°16'0 0.0
2014-Sep-22 15:33N 33°45' W 118°16'0 0.0
2014-Sep-22 14:33N 33°45' W 118°16'0 0.0
2014-Sep-22 13:33N 33°45' W 118°16'0 0.0
2014-Sep-22 12:33N 33°45' W 118°16'0 0.0
2014-Sep-22 11:33N 33°45' W 118°16'0 0.0
2014-Sep-22 10:33N 33°45' W 118°16'0 0.0
2014-Sep-22 09:33N 33°45' W 118°16'0 0.0
2014-Sep-22 08:33N 33°45' W 118°16'0 0.0
2014-Sep-22 07:33N 33°45' W 118°16'0 0.0
2014-Sep-22 06:33N 33°45' W 118°16'0 0.0
2014-Sep-22 05:33N 33°45' W 118°16'0 0.0
2014-Sep-22 04:33N 33°45' W 118°16'0 0.0
2014-Sep-22 03:33N 33°45' W 118°16'0 0.0
2014-Sep-22 02:33N 33°45' W 118°16'0 0.0
2014-Sep-22 01:33N 33°45' W 118°16'0 0.0
2014-Sep-22 00:33N 33°45' W 118°16'0 0.0
2014-Sep-21 23:33N 33°45' W 118°16'0 0.0
2014-Sep-21 22:33N 33°45' W 118°16'0 0.0
2014-Sep-21 21:33N 33°45' W 118°16'0 0.0
2014-Sep-21 20:33N 33°45' W 118°16'0 0.0
2014-Sep-21 19:33N 33°45' W 118°16'0 0.0
2014-Sep-21 18:33N 33°45' W 118°16'0 0.0
2014-Sep-21 17:33N 33°45' W 118°16'0 0.0
2014-Sep-21 16:33N 33°45' W 118°16'0 0.0
2014-Sep-21 15:33N 33°45' W 118°16'0 0.0
2014-Sep-21 14:33N 33°45' W 118°16'0 0.0
2014-Sep-21 13:33N 33°45' W 118°16'0 0.0
2014-Sep-21 12:33N 33°46' W 118°16'0 0.1
2014-Sep-21 11:33N 33°45' W 118°16'0 0.1
2014-Sep-21 10:33N 33°45' W 118°16'0 0.0
2014-Sep-21 09:27N 33°45' W 118°16'0 0.0
2014-Sep-21 08:33N 33°45' W 118°16'0 0.0
2014-Sep-21 07:33N 33°45' W 118°16'0 0.0
2014-Sep-21 06:33N 33°45' W 118°16'0 0.0
2014-Sep-21 05:30N 33°45' W 118°16'0 0.0
2014-Sep-21 04:33N 33°45' W 118°16'0 0.0
2014-Sep-21 03:33N 33°45' W 118°16'0 0.0
2014-Sep-21 02:33N 33°45' W 118°16'0 0.0
2014-Sep-21 01:33N 33°45' W 118°16'0 0.0
2014-Sep-21 00:33N 33°45' W 118°16'0 0.0
2014-Sep-20 23:33N 33°45' W 118°16'0 0.0
2014-Sep-20 22:33N 33°45' W 118°16'0 0.0
2014-Sep-20 21:33N 33°45' W 118°16'0 0.0
2014-Sep-20 20:33N 33°45' W 118°16'0 0.0
2014-Sep-20 19:33N 33°45' W 118°16'0 0.0
2014-Sep-20 18:33N 33°45' W 118°16'0 0.0
2014-Sep-20 17:33N 33°45' W 118°16'0 0.0
2014-Sep-20 16:33N 33°45' W 118°16'0 0.0
2014-Sep-20 15:33N 33°45' W 118°16'0 0.0
2014-Sep-20 14:33N 33°45' W 118°16'0 0.0
2014-Sep-20 13:33N 33°45' W 118°16'6 5.0
2014-Sep-20 12:26N 33°40' W 118°13'7 6.2
2014-Sep-20 11:22N 33°36' W 118°20'16 8.5
2014-Sep-20 09:26N 33°44' W 118°38'8 8.8
2014-Sep-20 08:33N 33°48' W 118°46'11 9.1
2014-Sep-20 07:24N 33°53' W 118°57'1513.6
2014-Sep-20 06:16N 34°00' W 119°13'1014.4
2014-Sep-20 05:33N 34°04' W 119°24'2014.4
2014-Sep-20 04:08N 34°10' W 119°48'814.3
2014-Sep-20 03:33N 34°12' W 119°58'1414.4
2014-Sep-20 02:33N 34°16' W 120°15'1615.3
2014-Sep-20 01:32N 34°20' W 120°33'7618.8
2014-Sep-19 21:29N 34°56' W 121°54'1819.2
2014-Sep-19 20:33N 35°06' W 122°13'1918.9
2014-Sep-19 19:33N 35°16' W 122°32'1918.7
2014-Sep-19 18:33N 35°26' W 122°51'1918.4
2014-Sep-19 17:33N 35°36' W 123°11'1818.6
2014-Sep-19 16:33N 35°46' W 123°30'1918.7
2014-Sep-19 15:33N 35°56' W 123°49'  

Dump ship's entire track history